Prudhoe Bay, Alaska
Current Conditions -  °F | °C
As of 11:53 PM on Wednesday 22 Oct 2014 (Local Time) from PASC Reporting Station
Overcast Overcast  
Wind Chill:   Ceiling: 1700
Heat Index: 21°   Visibility: 10mi
Dew Point: 18°   Wind: 20mph
Humidity: 88%   Direction: 90°E
Pressure: 29.93"   Gusts: NA
Location:  70.28°N, 148.38°W
Report Text: PASC 230753Z 09017KT 10SM BKN017 OVC023 M06/M08 A2993 RMK AO2 SLP138 T10611078
Loading
Personal Weather Stations






























Interactive Weather Map New forecast layout! Learn more

10-Day Weather Forecast

Advertisements
Track Severe Weather on mobile